Atkinson, Illinois
Current Conditions -  °F | °C
As of 11:52 PM on Thursday 30 Oct 2014 (Local Time) from KMLI Reporting Station
Overcast Overcast  
Wind Chill: 46°   Ceiling: 6000
Heat Index: 46°   Visibility: 10mi
Dew Point: 39°   Wind: 3mph
Humidity: 76%   Direction: 290°WNW
Pressure: 30.1"   Gusts: NA
Location:  41.42°N, 90.02°W
Report Text: KMLI 310452Z AUTO 29003KT 10SM OVC060 08/04 A3010 RMK AO2 SLP196 T00780039
Loading
Personal Weather Stations






























Interactive Weather Map
Tropical Storm Tracking
New forecast layout! Learn more

10-Day Weather Forecast

Advertisements
Track Severe Weather on mobile